Time;durP1;ratioP1;P1;durP2;ratioP2;P2;SDS_P1;SDS_P2;PMS_P1;PMS_P2;Temp;Humidity;BMP_temperature;BMP_pressure;BME280_temperature;BME280_humidity;BME280_pressure;Samples;Min_cycle;Max_cycle;Signal;HPM_P1;HPM_P2
2022/04/16 00:00:55;;;;;;;6.00;3.08;;;;;;;;;;5032650;28;20021;-37
2022/04/16 00:03:21;;;;;;;5.90;3.75;;;;;;;;;;5032525;28;20030;-37
2022/04/16 00:05:51;;;;;;;6.10;4.20;;;;;;;;;;5032831;28;20025;-37
2022/04/16 00:08:17;;;;;;;6.78;3.47;;;;;;;;;;5032640;28;20375;-37
2022/04/16 00:10:43;;;;;;;4.43;3.63;;;;;;;;;;5032416;28;20025;-37
2022/04/16 00:13:08;;;;;;;3.75;3.13;;;;;;;;;;5032282;28;20124;-37
2022/04/16 00:15:34;;;;;;;5.32;4.07;;;;;;;;;;5032549;28;20029;-37
2022/04/16 00:17:59;;;;;;;10.95;3.03;;;;;;;;;;5032229;28;20124;-37
2022/04/16 00:20:25;;;;;;;7.57;3.05;;;;;;;;;;5032432;28;20037;-37
2022/04/16 00:22:51;;;;;;;4.75;3.17;;;;;;;;;;5032128;28;20036;-37
2022/04/16 00:25:16;;;;;;;4.53;3.05;;;;;;;;;;5032157;28;20022;-37
2022/04/16 00:27:42;;;;;;;5.88;3.35;;;;;;;;;;5032378;28;20116;-37
2022/04/16 00:30:07;;;;;;;6.55;3.17;;;;;;;;;;5032055;28;20020;-37
2022/04/16 00:32:34;;;;;;;7.55;2.97;;;;;;;;;;5031115;28;20053;-37
2022/04/16 00:35:01;;;;;;;4.15;2.72;;;;;;;;;;5031919;28;20064;-37
2022/04/16 00:37:26;;;;;;;5.07;2.95;;;;;;;;;;5032227;28;20029;-37
2022/04/16 00:39:52;;;;;;;4.38;2.95;;;;;;;;;;5031806;28;20124;-37
2022/04/16 00:42:18;;;;;;;3.65;2.90;;;;;;;;;;5032262;28;20028;-37
2022/04/16 00:44:43;;;;;;;8.55;3.20;;;;;;;;;;5031891;28;20025;-37
2022/04/16 00:47:09;;;;;;;5.70;2.70;;;;;;;;;;5031583;28;20038;-38
2022/04/16 00:49:35;;;;;;;3.88;2.88;;;;;;;;;;5032097;28;20499;-37
2022/04/16 00:52:01;;;;;;;3.53;3.13;;;;;;;;;;5031859;28;20057;-37
2022/04/16 00:54:26;;;;;;;5.28;2.80;;;;;;;;;;5031755;28;20028;-37
2022/04/16 00:56:52;;;;;;;9.45;3.65;;;;;;;;;;5031568;28;20026;-37
2022/04/16 00:59:17;;;;;;;4.72;2.95;;;;;;;;;;5031578;28;20164;-37
2022/04/16 01:01:43;;;;;;;5.28;3.47;;;;;;;;;;5031930;28;20095;-37
2022/04/16 01:04:09;;;;;;;4.53;3.00;;;;;;;;;;5032060;28;20037;-37
2022/04/16 01:06:38;;;;;;;5.95;3.83;;;;;;;;;;5031764;28;20034;-37
2022/04/16 01:09:04;;;;;;;3.47;2.72;;;;;;;;;;5030857;28;20079;-37
2022/04/16 01:11:32;;;;;;;3.63;3.08;;;;;;;;;;5031731;28;20026;-37
2022/04/16 01:13:58;;;;;;;8.70;2.92;;;;;;;;;;5031647;28;20076;-37
2022/04/16 01:16:24;;;;;;;4.72;2.80;;;;;;;;;;5031349;28;20025;-37
2022/04/16 01:18:49;;;;;;;3.92;2.78;;;;;;;;;;5031404;28;20244;-37
2022/04/16 01:21:14;;;;;;;2.72;2.38;;;;;;;;;;5030207;28;20033;-37
2022/04/16 01:23:40;;;;;;;7.53;3.10;;;;;;;;;;5031646;28;20017;-37
2022/04/16 01:26:06;;;;;;;9.57;3.05;;;;;;;;;;5031329;28;20048;-37
2022/04/16 01:28:31;;;;;;;3.70;3.10;;;;;;;;;;5029972;28;20563;-37
2022/04/16 01:30:57;;;;;;;7.10;3.22;;;;;;;;;;5031506;28;20108;-37
2022/04/16 01:33:22;;;;;;;4.00;3.17;;;;;;;;;;5031352;28;20392;-37
2022/04/16 01:35:53;;;;;;;4.78;3.13;;;;;;;;;;5031242;28;20033;-37
2022/04/16 01:38:19;;;;;;;4.07;2.92;;;;;;;;;;5031147;28;20108;-37
2022/04/16 01:40:44;;;;;;;4.85;2.97;;;;;;;;;;5031161;28;20128;-37
2022/04/16 01:43:10;;;;;;;4.07;3.25;;;;;;;;;;5031104;28;20095;-37
2022/04/16 01:45:35;;;;;;;8.90;3.60;;;;;;;;;;5031005;28;20041;-41
2022/04/16 01:48:01;;;;;;;3.13;2.42;;;;;;;;;;5030966;28;20038;-37
2022/04/16 01:50:26;;;;;;;4.18;2.63;;;;;;;;;;5031096;28;20064;-37
2022/04/16 01:52:52;;;;;;;3.53;3.22;;;;;;;;;;5030936;28;20040;-37
2022/04/16 01:55:17;;;;;;;3.53;2.97;;;;;;;;;;5031010;28;20021;-37
2022/04/16 01:57:43;;;;;;;5.50;3.47;;;;;;;;;;5031032;28;20037;-37
2022/04/16 02:00:10;;;;;;;3.08;2.35;;;;;;;;;;5030916;28;20036;-38
2022/04/16 02:02:36;;;;;;;4.07;2.50;;;;;;;;;;5031308;28;20388;-37
2022/04/16 02:05:02;;;;;;;6.85;2.70;;;;;;;;;;5031241;28;20083;-37
2022/04/16 02:07:28;;;;;;;2.78;2.58;;;;;;;;;;5031262;28;20037;-37
2022/04/16 02:09:53;;;;;;;7.10;3.13;;;;;;;;;;5030863;28;20025;-37
2022/04/16 02:12:18;;;;;;;6.38;3.50;;;;;;;;;;5031192;28;20516;-37
2022/04/16 02:14:44;;;;;;;5.28;2.75;;;;;;;;;;5031011;28;20022;-37
2022/04/16 02:17:09;;;;;;;5.53;3.10;;;;;;;;;;5030996;28;20057;-38
2022/04/16 02:19:36;;;;;;;5.93;2.63;;;;;;;;;;5031096;28;20041;-37
2022/04/16 02:22:02;;;;;;;3.80;2.88;;;;;;;;;;5034622;28;20041;-37
2022/04/16 02:24:28;;;;;;;4.38;2.50;;;;;;;;;;5034384;28;20414;-37
2022/04/16 02:26:55;;;;;;;3.42;2.97;;;;;;;;;;5034297;28;20034;-37
2022/04/16 02:29:21;;;;;;;8.85;2.85;;;;;;;;;;5034415;28;20029;-37
2022/04/16 02:31:47;;;;;;;5.53;2.83;;;;;;;;;;5034616;28;20032;-37
2022/04/16 02:34:13;;;;;;;3.53;2.90;;;;;;;;;;5034233;28;20026;-37
2022/04/16 02:36:40;;;;;;;3.03;2.70;;;;;;;;;;5034474;28;20022;-37
2022/04/16 02:39:05;;;;;;;3.72;2.92;;;;;;;;;;5034375;28;20265;-37
2022/04/16 02:41:31;;;;;;;6.45;2.83;;;;;;;;;;5034467;28;20029;-37
2022/04/16 02:43:58;;;;;;;4.43;2.83;;;;;;;;;;5034195;28;20025;-37
2022/04/16 02:49:10;;;;;;;3.95;2.45;;;;;;;;;;5034047;28;20113;-37
2022/04/16 02:51:36;;;;;;;3.97;2.25;;;;;;;;;;5034314;28;20096;-37
2022/04/16 02:54:02;;;;;;;3.75;2.83;;;;;;;;;;5034071;28;20091;-37
2022/04/16 02:56:27;;;;;;;4.28;2.70;;;;;;;;;;5034137;28;20044;-37
2022/04/16 02:58:52;;;;;;;3.90;2.78;;;;;;;;;;5033971;28;20026;-37
2022/04/16 03:01:18;;;;;;;2.70;2.22;;;;;;;;;;5033966;28;20022;-37
2022/04/16 03:03:43;;;;;;;5.45;3.42;;;;;;;;;;5033777;28;20491;-37
2022/04/16 03:06:09;;;;;;;2.67;2.47;;;;;;;;;;5033597;28;20014;-37
2022/04/16 03:08:35;;;;;;;3.40;2.70;;;;;;;;;;5033686;28;20032;-37
2022/04/16 03:11:00;;;;;;;5.78;3.33;;;;;;;;;;5033548;28;20032;-37
2022/04/16 03:13:25;;;;;;;3.88;2.45;;;;;;;;;;5033532;28;20116;-37
2022/04/16 03:18:35;;;;;;;4.40;2.95;;;;;;;;;;5033741;28;20374;-37
2022/04/16 03:21:01;;;;;;;5.05;2.72;;;;;;;;;;5033366;28;20014;-37
2022/04/16 03:23:27;;;;;;;6.45;2.78;;;;;;;;;;5031940;28;20045;-37
2022/04/16 03:25:53;;;;;;;3.92;2.72;;;;;;;;;;5033348;28;20013;-37
2022/04/16 03:28:19;;;;;;;3.90;2.60;;;;;;;;;;5033516;28;20179;-37
2022/04/16 03:30:44;;;;;;;4.35;2.45;;;;;;;;;;5033482;28;20104;-37
2022/04/16 03:33:11;;;;;;;3.30;2.75;;;;;;;;;;5032465;28;20041;-37
2022/04/16 03:35:36;;;;;;;5.78;2.75;;;;;;;;;;5033090;28;20026;-37
2022/04/16 03:38:02;;;;;;;4.85;3.35;;;;;;;;;;5033048;28;20048;-38
2022/04/16 03:40:27;;;;;;;4.63;2.97;;;;;;;;;;5033266;28;20116;-37
2022/04/16 03:42:57;;;;;;;5.60;2.75;;;;;;;;;;5032831;28;20099;-38
2022/04/16 03:45:23;;;;;;;7.03;3.83;;;;;;;;;;5032854;28;20045;-37
2022/04/16 03:47:48;;;;;;;4.70;3.20;;;;;;;;;;5033122;28;20033;-37
2022/04/16 03:50:14;;;;;;;5.47;3.28;;;;;;;;;;5032820;28;20017;-37
2022/04/16 03:52:43;;;;;;;5.45;4.07;;;;;;;;;;5033102;28;20514;-38
2022/04/16 04:00:41;;;;;;;4.65;3.42;;;;;;;;;;5032988;28;20029;-37
2022/04/16 04:03:07;;;;;;;5.50;3.85;;;;;;;;;;5032792;28;20027;-37
2022/04/16 04:05:32;;;;;;;5.68;3.60;;;;;;;;;;5032853;28;20029;-37
2022/04/16 04:07:58;;;;;;;5.70;3.50;;;;;;;;;;5032737;28;20380;-37
2022/04/16 04:10:23;;;;;;;4.90;3.70;;;;;;;;;;5032733;28;20507;-37
2022/04/16 04:12:49;;;;;;;6.88;3.53;;;;;;;;;;5032716;28;20017;-37
2022/04/16 04:15:14;;;;;;;7.30;4.25;;;;;;;;;;5032339;28;20443;-37
2022/04/16 04:17:39;;;;;;;4.32;3.38;;;;;;;;;;5030984;28;20025;-37
2022/04/16 04:20:05;;;;;;;7.15;3.42;;;;;;;;;;5032158;28;20132;-37
2022/04/16 04:22:31;;;;;;;7.28;3.55;;;;;;;;;;5032493;28;20060;-37
2022/04/16 04:24:56;;;;;;;6.38;3.72;;;;;;;;;;5032095;28;20065;-37
2022/04/16 04:27:21;;;;;;;10.30;4.70;;;;;;;;;;5032233;28;20051;-37
2022/04/16 04:29:47;;;;;;;9.68;3.90;;;;;;;;;;5032355;28;20057;-37
2022/04/16 04:32:12;;;;;;;5.88;3.70;;;;;;;;;;5032349;28;20030;-37
2022/04/16 04:34:37;;;;;;;5.75;3.60;;;;;;;;;;5030791;28;20061;-37
2022/04/16 04:37:03;;;;;;;8.02;4.10;;;;;;;;;;5031950;28;20070;-37
2022/04/16 04:39:28;;;;;;;6.10;3.88;;;;;;;;;;5031854;28;20049;-37
2022/04/16 04:41:54;;;;;;;8.75;5.10;;;;;;;;;;5031924;28;20079;-37
2022/04/16 04:44:19;;;;;;;5.38;3.30;;;;;;;;;;5031990;28;20112;-37
2022/04/16 04:46:44;;;;;;;7.43;4.38;;;;;;;;;;5031576;28;20052;-37
2022/04/16 04:49:11;;;;;;;6.75;3.35;;;;;;;;;;5031744;28;20029;-37
2022/04/16 04:51:40;;;;;;;5.22;4.05;;;;;;;;;;5031802;28;20024;-37
2022/04/16 04:54:06;;;;;;;9.23;4.35;;;;;;;;;;5031821;28;20044;-37
2022/04/16 04:56:32;;;;;;;6.22;4.05;;;;;;;;;;5030348;28;20078;-37
2022/04/16 04:58:58;;;;;;;5.90;4.45;;;;;;;;;;5031762;28;20132;-37
2022/04/16 05:01:24;;;;;;;6.72;4.80;;;;;;;;;;5031875;28;20021;-37
2022/04/16 05:03:50;;;;;;;6.10;4.55;;;;;;;;;;5031897;28;20626;-37
2022/04/16 05:06:15;;;;;;;6.90;4.47;;;;;;;;;;5031450;28;20112;-38
2022/04/16 05:08:42;;;;;;;8.02;4.57;;;;;;;;;;5031482;28;20041;-37
2022/04/16 05:11:07;;;;;;;8.23;4.95;;;;;;;;;;5031720;28;20371;-37
2022/04/16 05:13:34;;;;;;;7.65;4.38;;;;;;;;;;5031487;28;20029;-37
2022/04/16 05:15:59;;;;;;;9.90;4.63;;;;;;;;;;5031282;28;20013;-37
2022/04/16 05:18:25;;;;;;;6.28;3.97;;;;;;;;;;5031292;28;20117;-37
2022/04/16 05:20:51;;;;;;;8.40;4.10;;;;;;;;;;5031513;28;20017;-37
2022/04/16 05:23:17;;;;;;;2.70;2.45;;;;;;;;;;5031252;28;20448;-37
2022/04/16 05:25:42;;;;;;;4.70;3.50;;;;;;;;;;5031393;28;20017;-37
2022/04/16 05:28:09;;;;;;;5.18;3.47;;;;;;;;;;5031249;28;20112;-37
2022/04/16 05:30:54;;;;;;;5.47;4.32;;;;;;;;;;5031246;28;20027;-37
2022/04/16 05:36:04;;;;;;;7.40;3.88;;;;;;;;;;5031173;28;20361;-37
2022/04/16 05:38:29;;;;;;;10.50;3.90;;;;;;;;;;5031480;28;20029;-37
2022/04/16 05:40:55;;;;;;;5.18;3.53;;;;;;;;;;5031139;28;20087;-37
2022/04/16 05:43:20;;;;;;;5.55;3.15;;;;;;;;;;5031126;28;20014;-37
2022/04/16 05:45:46;;;;;;;4.35;3.67;;;;;;;;;;5031023;28;20060;-37
2022/04/16 05:48:11;;;;;;;10.02;3.55;;;;;;;;;;5031113;28;20557;-37
2022/04/16 05:50:37;;;;;;;3.88;3.13;;;;;;;;;;5031106;28;20083;-37
2022/04/16 05:53:06;;;;;;;6.20;3.63;;;;;;;;;;5031205;28;20079;-37
2022/04/16 05:55:31;;;;;;;4.65;3.65;;;;;;;;;;5032489;28;20036;-37
2022/04/16 05:57:57;;;;;;;4.70;3.28;;;;;;;;;;5034770;28;20116;-37
2022/04/16 06:00:22;;;;;;;3.58;3.03;;;;;;;;;;5035182;28;20092;-37
2022/04/16 06:02:48;;;;;;;5.57;3.08;;;;;;;;;;5034945;28;20518;-37
2022/04/16 06:05:14;;;;;;;4.20;3.30;;;;;;;;;;5034672;28;20116;-37
2022/04/16 06:07:39;;;;;;;4.97;3.03;;;;;;;;;;5035097;28;20108;-37
2022/04/16 06:10:05;;;;;;;3.85;3.03;;;;;;;;;;5034704;28;20535;-37
2022/04/16 06:12:31;;;;;;;4.32;3.10;;;;;;;;;;5034638;28;20025;-38
2022/04/16 06:14:57;;;;;;;4.20;2.90;;;;;;;;;;5034902;28;20029;-37
2022/04/16 06:17:22;;;;;;;6.68;3.75;;;;;;;;;;5034546;28;20340;-37
2022/04/16 06:19:48;;;;;;;6.00;3.10;;;;;;;;;;5034493;28;20365;-37
2022/04/16 06:22:13;;;;;;;7.05;3.20;;;;;;;;;;5034540;28;20021;-37
2022/04/16 06:24:40;;;;;;;4.65;2.80;;;;;;;;;;5034539;28;20026;-37
2022/04/16 06:27:05;;;;;;;4.38;2.95;;;;;;;;;;5032985;28;20022;-37
2022/04/16 06:29:31;;;;;;;5.13;3.60;;;;;;;;;;5034416;28;20085;-37
2022/04/16 06:31:57;;;;;;;10.30;2.75;;;;;;;;;;5034238;28;20025;-37
2022/04/16 06:34:23;;;;;;;4.03;2.80;;;;;;;;;;5034606;28;20036;-38
2022/04/16 06:36:50;;;;;;;5.10;2.72;;;;;;;;;;5034510;28;20022;-37
2022/04/16 06:39:15;;;;;;;3.72;2.75;;;;;;;;;;5034101;28;20041;-38
2022/04/16 06:41:41;;;;;;;4.13;3.17;;;;;;;;;;5033154;28;20067;-37
2022/04/16 06:44:09;;;;;;;5.93;2.88;;;;;;;;;;5032789;28;20033;-37
2022/04/16 06:46:35;;;;;;;2.65;2.08;;;;;;;;;;5034046;28;20405;-38
2022/04/16 06:49:00;;;;;;;3.55;2.70;;;;;;;;;;5033915;28;20028;-37
2022/04/16 06:51:26;;;;;;;4.32;2.33;;;;;;;;;;5034008;28;20087;-37
2022/04/16 06:53:52;;;;;;;4.65;2.55;;;;;;;;;;5033975;28;20075;-37
2022/04/16 06:56:18;;;;;;;4.18;3.15;;;;;;;;;;5033791;28;20353;-37
2022/04/16 06:58:43;;;;;;;4.63;3.22;;;;;;;;;;5033801;28;20423;-37
2022/04/16 07:01:09;;;;;;;3.60;2.92;;;;;;;;;;5033923;28;20033;-37
2022/04/16 07:03:35;;;;;;;2.85;2.28;;;;;;;;;;5034038;28;20026;-37
2022/04/16 07:06:00;;;;;;;3.35;2.72;;;;;;;;;;5033818;28;20071;-37
2022/04/16 07:08:26;;;;;;;4.07;2.95;;;;;;;;;;5033947;28;20113;-37
2022/04/16 07:10:52;;;;;;;2.65;2.45;;;;;;;;;;5033693;28;20052;-37
2022/04/16 07:13:20;;;;;;;2.90;2.60;;;;;;;;;;5033461;28;20030;-37
2022/04/16 07:15:46;;;;;;;3.72;2.85;;;;;;;;;;5033559;28;20060;-37
2022/04/16 07:18:11;;;;;;;2.50;1.58;;;;;;;;;;5033427;28;20061;-37
2022/04/16 07:20:37;;;;;;;4.93;2.38;;;;;;;;;;5033410;28;20380;-37
2022/04/16 07:23:04;;;;;;;4.13;2.42;;;;;;;;;;5033588;28;20026;-37
2022/04/16 07:25:30;;;;;;;4.45;3.08;;;;;;;;;;5033645;28;20080;-38
2022/04/16 07:27:56;;;;;;;3.35;2.40;;;;;;;;;;5033348;28;20029;-37
2022/04/16 07:30:22;;;;;;;2.95;2.42;;;;;;;;;;5033273;28;20014;-37
2022/04/16 07:32:49;;;;;;;3.30;2.55;;;;;;;;;;5033324;28;20037;-37
2022/04/16 07:35:15;;;;;;;3.70;2.20;;;;;;;;;;5033179;28;20045;-37
2022/04/16 07:37:40;;;;;;;3.17;2.22;;;;;;;;;;5032994;28;20065;-37
2022/04/16 07:40:06;;;;;;;2.88;2.05;;;;;;;;;;5033285;28;20033;-37
2022/04/16 07:42:32;;;;;;;2.97;2.67;;;;;;;;;;5033376;28;20025;-37
2022/04/16 07:44:58;;;;;;;3.63;2.25;;;;;;;;;;5032799;28;20025;-37
2022/04/16 07:47:23;;;;;;;3.22;2.28;;;;;;;;;;5032735;28;20057;-37
2022/04/16 07:49:49;;;;;;;3.83;2.63;;;;;;;;;;5033198;28;20052;-37
2022/04/16 07:52:14;;;;;;;4.72;1.80;;;;;;;;;;5031832;28;20057;-37
2022/04/16 07:54:39;;;;;;;5.50;2.03;;;;;;;;;;5033100;28;20118;-38
2022/04/16 07:57:05;;;;;;;3.08;2.35;;;;;;;;;;5032628;28;20480;-37
2022/04/16 07:59:30;;;;;;;2.80;2.20;;;;;;;;;;5032601;28;20039;-37
2022/04/16 08:01:56;;;;;;;4.72;2.28;;;;;;;;;;5032729;28;20087;-37
2022/04/16 08:04:21;;;;;;;3.50;2.38;;;;;;;;;;5032795;28;20022;-37
2022/04/16 08:06:47;;;;;;;3.72;2.65;;;;;;;;;;5032465;28;20380;-37
2022/04/16 08:09:12;;;;;;;5.22;2.10;;;;;;;;;;5032548;28;20084;-37
2022/04/16 08:11:38;;;;;;;5.72;2.38;;;;;;;;;;5032524;28;20550;-37
2022/04/16 08:14:04;;;;;;;6.03;2.28;;;;;;;;;;5032267;28;20025;-37
2022/04/16 08:16:30;;;;;;;3.92;2.25;;;;;;;;;;5032336;28;20601;-38
2022/04/16 08:18:57;;;;;;;3.35;2.40;;;;;;;;;;5032140;28;20116;-37
2022/04/16 08:21:22;;;;;;;2.85;2.35;;;;;;;;;;5032136;28;20040;-37
2022/04/16 08:26:32;;;;;;;3.13;1.98;;;;;;;;;;5032171;28;20503;-38
2022/04/16 08:28:57;;;;;;;5.00;2.65;;;;;;;;;;5032448;28;20052;-38
2022/04/16 08:31:23;;;;;;;1.55;1.45;;;;;;;;;;5032049;28;20042;-37
2022/04/16 08:33:49;;;;;;;3.20;1.83;;;;;;;;;;5032325;28;20101;-37
2022/04/16 08:36:15;;;;;;;2.22;1.92;;;;;;;;;;5032283;28;20034;-37
2022/04/16 08:38:41;;;;;;;3.63;2.28;;;;;;;;;;5030637;28;20033;-37
2022/04/16 08:41:09;;;;;;;3.70;1.90;;;;;;;;;;5032175;28;20034;-37
2022/04/16 08:43:35;;;;;;;2.15;1.73;;;;;;;;;;5031032;28;20018;-37
2022/04/16 08:46:02;;;;;;;5.93;2.28;;;;;;;;;;5031675;28;20057;-37
2022/04/16 08:48:29;;;;;;;4.35;2.03;;;;;;;;;;5031820;28;20037;-38
2022/04/16 08:50:56;;;;;;;2.30;1.52;;;;;;;;;;5031742;28;20125;-37
2022/04/16 08:53:21;;;;;;;1.63;1.42;;;;;;;;;;5031800;28;20017;-37
2022/04/16 08:55:47;;;;;;;1.63;1.45;;;;;;;;;;5031649;28;20036;-37
2022/04/16 08:58:12;;;;;;;1.95;1.75;;;;;;;;;;5031688;28;20027;-37
2022/04/16 09:00:37;;;;;;;2.45;1.67;;;;;;;;;;5031915;28;20060;-37
2022/04/16 09:03:05;;;;;;;1.80;1.52;;;;;;;;;;5031490;28;20114;-37
2022/04/16 09:05:30;;;;;;;1.95;1.80;;;;;;;;;;5031887;28;20029;-37
2022/04/16 09:07:57;;;;;;;2.42;1.80;;;;;;;;;;5031859;28;20084;-38
2022/04/16 09:10:29;;;;;;;2.03;1.48;;;;;;;;;;5031402;28;20535;-37
2022/04/16 09:12:55;;;;;;;1.95;1.52;;;;;;;;;;5031810;28;20037;-37
2022/04/16 09:15:22;;;;;;;0.93;0.93;;;;;;;;;;5031432;28;20025;-37
2022/04/16 09:18:02;;;;;;;1.23;0.73;;;;;;;;;;5031706;28;20032;-37
2022/04/16 09:20:29;;;;;;;1.70;1.25;;;;;;;;;;5031657;28;20041;-37
2022/04/16 09:22:54;;;;;;;4.03;2.10;;;;;;;;;;5031735;28;20076;-37
2022/04/16 09:25:20;;;;;;;4.40;1.75;;;;;;;;;;5031308;28;20484;-37
2022/04/16 09:27:49;;;;;;;2.92;2.25;;;;;;;;;;5031270;28;20023;-37
2022/04/16 09:30:23;;;;;;;1.38;1.20;;;;;;;;;;5032289;28;20106;-37
2022/04/16 09:32:49;;;;;;;1.30;1.20;;;;;;;;;;5035600;28;20502;-37
2022/04/16 09:35:27;;;;;;;1.58;1.40;;;;;;;;;;5035334;28;20022;-37
2022/04/16 09:37:56;;;;;;;2.17;1.60;;;;;;;;;;5035347;28;20072;-37
2022/04/16 09:40:30;;;;;;;1.35;1.25;;;;;;;;;;5035489;28;20037;-37
2022/04/16 09:42:56;;;;;;;1.25;1.15;;;;;;;;;;5035342;28;20033;-37
2022/04/16 09:45:22;;;;;;;3.05;1.30;;;;;;;;;;5034934;28;20032;-37
2022/04/16 09:47:49;;;;;;;1.70;1.45;;;;;;;;;;5034205;28;20033;-37
2022/04/16 09:50:17;;;;;;;1.38;1.27;;;;;;;;;;5035435;28;20043;-37
2022/04/16 09:52:43;;;;;;;1.67;1.23;;;;;;;;;;5035098;28;20025;-37
2022/04/16 09:55:09;;;;;;;1.02;1.00;;;;;;;;;;5034948;28;20058;-37
2022/04/16 09:57:37;;;;;;;2.03;0.98;;;;;;;;;;5035057;28;20036;-37
2022/04/16 10:00:03;;;;;;;1.65;1.10;;;;;;;;;;5034755;28;20029;-37
2022/04/16 10:02:39;;;;;;;1.50;0.98;;;;;;;;;;5035039;28;20083;-37
2022/04/16 10:05:05;;;;;;;1.08;0.98;;;;;;;;;;5034848;28;20026;-38
2022/04/16 10:07:31;;;;;;;2.15;1.20;;;;;;;;;;5035061;28;20097;-37
2022/04/16 10:09:58;;;;;;;5.38;0.90;;;;;;;;;;5035139;28;20034;-37
2022/04/16 10:15:19;;;;;;;0.98;0.88;;;;;;;;;;5034997;28;20079;-38
2022/04/16 10:17:48;;;;;;;1.98;1.38;;;;;;;;;;5034084;28;20033;-37
2022/04/16 10:20:20;;;;;;;2.95;1.20;;;;;;;;;;5034534;28;20025;-37
2022/04/16 10:23:03;;;;;;;1.67;1.15;;;;;;;;;;5034864;28;20044;-37
2022/04/16 10:25:29;;;;;;;1.75;1.38;;;;;;;;;;5034439;28;20037;-37
2022/04/16 10:27:59;;;;;;;1.52;1.13;;;;;;;;;;5034802;28;20018;-37
2022/04/16 10:30:34;;;;;;;1.98;1.15;;;;;;;;;;5034348;28;20120;-38
2022/04/16 10:33:03;;;;;;;1.25;1.15;;;;;;;;;;5034437;28;20650;-38
2022/04/16 10:35:29;;;;;;;1.23;1.00;;;;;;;;;;5034223;28;20045;-37
2022/04/16 10:37:54;;;;;;;1.80;1.42;;;;;;;;;;5034274;28;20115;-37
2022/04/16 10:40:20;;;;;;;2.08;0.90;;;;;;;;;;5034385;28;20384;-38
2022/04/16 10:42:47;;;;;;;1.67;0.95;;;;;;;;;;5033681;28;20409;-37
2022/04/16 10:45:13;;;;;;;1.70;1.15;;;;;;;;;;5033843;28;20468;-38
2022/04/16 10:47:38;;;;;;;2.97;1.00;;;;;;;;;;5034349;28;20087;-37
2022/04/16 10:50:26;;;;;;;1.52;1.10;;;;;;;;;;5034249;28;20033;-37
2022/04/16 10:52:53;;;;;;;5.97;1.40;;;;;;;;;;5034337;28;20099;-38
2022/04/16 10:55:20;;;;;;;1.23;1.13;;;;;;;;;;5034153;28;20296;-38
2022/04/16 10:57:55;;;;;;;2.40;1.00;;;;;;;;;;5033910;28;20113;-37
2022/04/16 11:00:21;;;;;;;1.25;1.15;;;;;;;;;;5033663;28;20496;-37
2022/04/16 11:02:47;;;;;;;1.48;1.20;;;;;;;;;;5034122;28;20084;-37
2022/04/16 11:05:12;;;;;;;2.38;1.23;;;;;;;;;;5033693;28;20026;-37
2022/04/16 11:07:39;;;;;;;1.52;0.88;;;;;;;;;;5034069;28;20044;-38
2022/04/16 11:10:06;;;;;;;3.53;1.63;;;;;;;;;;5033936;28;20037;-37
2022/04/16 11:12:31;;;;;;;1.23;1.13;;;;;;;;;;5033852;28;20022;-37
2022/04/16 11:14:57;;;;;;;3.50;1.10;;;;;;;;;;5033912;28;20075;-37
2022/04/16 11:17:24;;;;;;;2.50;1.20;;;;;;;;;;5033651;28;20018;-37
2022/04/16 11:20:05;;;;;;;0.95;0.77;;;;;;;;;;5033709;28;20045;-39
2022/04/16 11:22:32;;;;;;;0.80;0.68;;;;;;;;;;5033754;28;20021;-37
2022/04/16 11:24:59;;;;;;;0.65;0.45;;;;;;;;;;5033672;28;20357;-37
2022/04/16 11:35:53;;;;;;;1.65;0.95;;;;;;;;;;5033457;28;20060;-37
2022/04/16 11:38:29;;;;;;;12.18;1.00;;;;;;;;;;5033406;28;20036;-37
2022/04/16 11:40:56;;;;;;;1.25;0.95;;;;;;;;;;5033289;28;20034;-37
2022/04/16 11:43:23;;;;;;;0.93;0.85;;;;;;;;;;5033300;28;20368;-37
2022/04/16 11:45:49;;;;;;;0.60;0.60;;;;;;;;;;5033032;28;20033;-37
2022/04/16 11:48:15;;;;;;;0.55;0.55;;;;;;;;;;5033213;28;20087;-37
2022/04/16 11:50:41;;;;;;;0.75;0.50;;;;;;;;;;5033199;28;20349;-37
2022/04/16 11:53:06;;;;;;;1.00;0.82;;;;;;;;;;5031995;28;20083;-37
2022/04/16 11:55:33;;;;;;;2.03;0.90;;;;;;;;;;5033151;28;20511;-37
2022/04/16 11:57:59;;;;;;;0.65;0.47;;;;;;;;;;5033135;28;20033;-37
2022/04/16 12:00:24;;;;;;;1.60;0.90;;;;;;;;;;5032598;28;20069;-40
2022/04/16 12:02:54;;;;;;;1.00;0.57;;;;;;;;;;5033045;28;20041;-37
2022/04/16 12:05:25;;;;;;;0.60;0.50;;;;;;;;;;5032582;28;20060;-37
2022/04/16 12:07:52;;;;;;;4.72;0.82;;;;;;;;;;5032909;28;20030;-37
2022/04/16 12:10:17;;;;;;;1.52;1.15;;;;;;;;;;5032473;28;20041;-38
2022/04/16 12:12:48;;;;;;;1.40;0.98;;;;;;;;;;5032612;28;20018;-37
2022/04/16 12:15:26;;;;;;;1.90;0.82;;;;;;;;;;5032367;28;20549;-38
2022/04/16 12:17:53;;;;;;;1.30;0.77;;;;;;;;;;5032791;28;20404;-38
2022/04/16 12:20:20;;;;;;;0.82;0.52;;;;;;;;;;5032515;28;20078;-37
2022/04/16 12:22:54;;;;;;;0.60;0.60;;;;;;;;;;5032329;28;20072;-37
2022/04/16 12:25:21;;;;;;;0.60;0.50;;;;;;;;;;5032569;28;20037;-37
2022/04/16 12:27:49;;;;;;;1.05;0.55;;;;;;;;;;5014648;28;20033;-37
2022/04/16 12:30:19;;;;;;;0.52;0.52;;;;;;;;;;5032090;28;20399;-37
2022/04/16 12:32:54;;;;;;;0.85;0.85;;;;;;;;;;5032204;28;20025;-37
2022/04/16 12:35:20;;;;;;;0.40;0.40;;;;;;;;;;5031993;28;20075;-38
2022/04/16 12:37:45;;;;;;;0.38;0.38;;;;;;;;;;5032018;28;20049;-38
2022/04/16 12:40:11;;;;;;;0.38;0.32;;;;;;;;;;5031840;28;20052;-37
2022/04/16 12:42:36;;;;;;;0.65;0.65;;;;;;;;;;5031988;28;20056;-37
2022/04/16 12:45:02;;;;;;;0.95;0.73;;;;;;;;;;5031995;28;20087;-38
2022/04/16 12:47:27;;;;;;;1.27;0.50;;;;;;;;;;5031626;28;20069;-38
2022/04/16 12:49:53;;;;;;;0.70;0.70;;;;;;;;;;5031821;28;20083;-37
2022/04/16 12:52:20;;;;;;;0.52;0.43;;;;;;;;;;5031688;28;20084;-37
2022/04/16 12:54:46;;;;;;;0.68;0.50;;;;;;;;;;5031875;28;20052;-38
2022/04/16 12:57:12;;;;;;;0.30;0.20;;;;;;;;;;5031614;28;20103;-37
2022/04/16 12:59:37;;;;;;;0.60;0.50;;;;;;;;;;5031913;28;20037;-37
2022/04/16 13:02:03;;;;;;;0.50;0.22;;;;;;;;;;5032011;28;20022;-37
2022/04/16 13:04:30;;;;;;;1.38;0.47;;;;;;;;;;5031700;28;20025;-38
2022/04/16 13:06:56;;;;;;;0.50;0.47;;;;;;;;;;5031845;28;20030;-38
2022/04/16 13:09:21;;;;;;;0.52;0.50;;;;;;;;;;5031715;28;20468;-37
2022/04/16 13:11:50;;;;;;;0.63;0.43;;;;;;;;;;5031499;28;20384;-37
2022/04/16 13:14:16;;;;;;;0.30;0.30;;;;;;;;;;5031406;28;20029;-37
2022/04/16 13:16:41;;;;;;;0.95;0.93;;;;;;;;;;5031442;28;20044;-37
2022/04/16 13:19:07;;;;;;;0.52;0.52;;;;;;;;;;5031511;28;20103;-38
2022/04/16 13:21:33;;;;;;;0.50;0.40;;;;;;;;;;5031681;28;20415;-38
2022/04/16 13:23:58;;;;;;;0.73;0.40;;;;;;;;;;5031763;28;20547;-37
2022/04/16 13:26:24;;;;;;;0.75;0.70;;;;;;;;;;5031346;28;20061;-37
2022/04/16 13:28:50;;;;;;;2.42;0.73;;;;;;;;;;5031434;28;20683;-38
2022/04/16 13:31:16;;;;;;;0.60;0.40;;;;;;;;;;5031332;28;20032;-37
2022/04/16 13:33:42;;;;;;;0.38;0.30;;;;;;;;;;5031250;28;20572;-37
2022/04/16 13:36:08;;;;;;;2.33;0.50;;;;;;;;;;5031519;28;20018;-37
2022/04/16 13:38:34;;;;;;;0.93;0.50;;;;;;;;;;5031278;28;20026;-37
2022/04/16 13:43:44;;;;;;;0.65;0.30;;;;;;;;;;5031612;28;20034;-37
2022/04/16 13:46:10;;;;;;;0.60;0.50;;;;;;;;;;5029691;28;20060;-37
2022/04/16 13:48:35;;;;;;;0.40;0.30;;;;;;;;;;5031430;28;20022;-37
2022/04/16 13:51:01;;;;;;;1.33;0.30;;;;;;;;;;5031406;28;20155;-40
2022/04/16 13:53:26;;;;;;;0.80;0.38;;;;;;;;;;5031447;28;20118;-37
2022/04/16 13:55:52;;;;;;;0.65;0.30;;;;;;;;;;5031119;28;20075;-38
2022/04/16 13:58:17;;;;;;;1.85;0.35;;;;;;;;;;5030981;28;20034;-37
2022/04/16 14:00:43;;;;;;;0.30;0.22;;;;;;;;;;5031018;28;20069;-37
2022/04/16 14:03:09;;;;;;;0.32;0.20;;;;;;;;;;5030885;28;20030;-37
2022/04/16 14:05:44;;;;;;;0.30;0.30;;;;;;;;;;5031214;28;20036;-37
2022/04/16 14:08:10;;;;;;;0.20;0.20;;;;;;;;;;5030914;28;20504;-37
2022/04/16 14:10:35;;;;;;;0.40;0.30;;;;;;;;;;5031011;28;20094;-38
2022/04/16 14:13:01;;;;;;;0.30;0.30;;;;;;;;;;5030974;28;20128;-37
2022/04/16 14:15:27;;;;;;;0.57;0.52;;;;;;;;;;5030758;28;20030;-37
2022/04/16 14:17:56;;;;;;;0.40;0.35;;;;;;;;;;5034334;28;20372;-38
2022/04/16 14:20:22;;;;;;;0.25;0.22;;;;;;;;;;5034490;28;20033;-37
2022/04/16 14:22:48;;;;;;;0.35;0.30;;;;;;;;;;5034624;28;20036;-37
2022/04/16 14:25:17;;;;;;;0.20;0.20;;;;;;;;;;5034762;28;20017;-38
2022/04/16 14:27:43;;;;;;;0.30;0.30;;;;;;;;;;5034790;28;20083;-37
2022/04/16 14:30:09;;;;;;;2.70;0.40;;;;;;;;;;5034382;28;20411;-37
2022/04/16 14:32:36;;;;;;;0.45;0.43;;;;;;;;;;5034556;28;20065;-37
2022/04/16 14:35:02;;;;;;;0.40;0.20;;;;;;;;;;5034349;28;20028;-37
2022/04/16 14:37:28;;;;;;;0.30;0.30;;;;;;;;;;5034257;28;20029;-37
2022/04/16 14:39:57;;;;;;;0.50;0.50;;;;;;;;;;5034194;28;20495;-37
2022/04/16 14:42:24;;;;;;;0.20;0.20;;;;;;;;;;5034165;28;20541;-38
2022/04/16 14:44:53;;;;;;;0.40;0.20;;;;;;;;;;5034111;28;20116;-37
2022/04/16 14:47:22;;;;;;;0.15;0.10;;;;;;;;;;5033918;28;20045;-37
2022/04/16 14:49:48;;;;;;;0.30;0.30;;;;;;;;;;5034198;28;20040;-38
2022/04/16 14:52:14;;;;;;;0.20;0.20;;;;;;;;;;5033979;28;20420;-37
2022/04/16 14:54:40;;;;;;;0.28;0.22;;;;;;;;;;5034339;28;20419;-37
2022/04/16 14:57:06;;;;;;;0.10;0.10;;;;;;;;;;5034256;28;20078;-38
2022/04/16 14:59:32;;;;;;;0.20;0.20;;;;;;;;;;5034240;28;20052;-37
2022/04/16 15:01:59;;;;;;;0.43;0.40;;;;;;;;;;5034227;28;20625;-37
2022/04/16 15:04:25;;;;;;;0.20;0.20;;;;;;;;;;5033723;28;20021;-38
2022/04/16 15:06:51;;;;;;;0.30;0.30;;;;;;;;;;5033699;28;20036;-37
2022/04/16 15:09:16;;;;;;;0.20;0.20;;;;;;;;;;5033632;28;20105;-37